หน้าหลัก
METAR-TAF:

METAR-TAF

ท่าอากาศยาน :

ท่าอากาศยานโคเปนเฮเกน

โคเปนเฮเกน, เดนมาร์ก

ละติจูด: 55-37N, ลองจิจูด: 012-39E, ความสูง: 5 ม.

การสังเกตสภาพอากาศปัจจุบัน

รายงานได้ทำขึ้นเมื่อ 24 นาทีที่แล้ว ณ เวลา 20:50 UTC
ลม 9 นอตจากเหนือ
อุณหภูมิ 3°C
ความชื้น 93%
ความกดอากาศ 1015 hPa
ทัศนวิสัย 10 กม. หรือมากกว่า

METAR: EKCH 262050Z AUTO 35009KT 9999 NCD 03/02 Q1015 TEMPO BKN004

เวลา: 22:14 (21:14 UTC)

การพยากรณ์

รายงานได้ทำขึ้นเมื่อ 3 ชั่วโมงและ 59 นาทีที่แล้ว ณ เวลา 17:15 UTC
การพยากรณ์มีผลตั้งแต่วันที่ 26 ณ เวลา 18 UTC จนถึงวันที่ 27 ณ เวลา 18 UTC
ลม 9 นอตจากเหนือ
ทัศนวิสัย 10 กม. หรือมากกว่า
ไม่มีเมฆต่ำกว่า 1,500 ม. และไม่มีเมฆคิวมูโลนิมบัส
ความน่าจะเป็น 40%
ตั้งแต่วันที่ 26 ณ เวลา 20 UTC จนถึงวันที่ 27 ณ เวลา 10 UTC
ทัศนวิสัย: 0800 ม.
มีเมฆเป็นส่วนมากเว้นเป็นระยะที่ความสูง 200 ฟุต
หมอก
ชั่วคราว
ตั้งแต่วันที่ 27 ณ เวลา 10 UTC จนถึงวันที่ 27 ณ เวลา 15 UTC
มีเมฆเป็นส่วนมากเว้นเป็นระยะที่ความสูง 800 ฟุต

TAF: EKCH 261715Z 2618/2718 36009KT CAVOK PROB40 2620/2710 0800 FG BKN002 TEMPO 2710/2715 BKN008

สังเกตการณ์สภาพอากาศและพยากรณ์อากาศของสนามบินมากกว่า 4000 แห่ง (รายงาน METAR และ TAF).

สถานีที่ดูได้จะแสดงไว้ด้วยจุดสีเหลืองและสีแดงบนแผนที่.

เลื่อนเมาส์ไปเหนือจุดเพื่อดูชื่อสถานี.

แล้วคลิกเพื่อดูสังเกตการณ์และการพยากรณ์สภาพอากาศ.

ในการเปลี่ยนแผนที่: คลิกที่ปุ่มสีเขียวที่มีกากบาทสีดำเพื่อซูมเข้า; ที่ปุ่มสีเขียวที่มีขีดเพื่อซูมออก; หรือที่ลูกศรสีเขียวเพื่อไปยังแผนที่ที่อยู่ติดกัน.


METAR-TAF: